sensor_id;sensor_type;location;lat;lon;timestamp;pressure;altitude;pressure_sealevel;temperature;humidity
58698;BME280;44475;53.206;-6.106;2023-08-31T00:01:01;100778.81;;;23.41;47.78
58698;BME280;44475;53.206;-6.106;2023-08-31T00:03:30;100761.41;;;23.42;47.76
58698;BME280;44475;53.206;-6.106;2023-08-31T00:05:56;100757.50;;;23.34;47.54
58698;BME280;44475;53.206;-6.106;2023-08-31T00:08:23;100751.06;;;23.45;47.74
58698;BME280;44475;53.206;-6.106;2023-08-31T00:10:59;100749.34;;;23.44;47.49
58698;BME280;44475;53.206;-6.106;2023-08-31T00:13:29;100750.19;;;23.35;47.70
58698;BME280;44475;53.206;-6.106;2023-08-31T00:15:56;100746.59;;;23.44;47.85
58698;BME280;44475;53.206;-6.106;2023-08-31T00:18:28;100745.84;;;23.32;48.00
58698;BME280;44475;53.206;-6.106;2023-08-31T00:20:54;100754.81;;;23.44;47.68
58698;BME280;44475;53.206;-6.106;2023-08-31T00:23:20;100750.00;;;23.36;48.07
58698;BME280;44475;53.206;-6.106;2023-08-31T00:25:47;100741.41;;;23.41;47.98
58698;BME280;44475;53.206;-6.106;2023-08-31T00:28:17;100751.06;;;23.45;47.78
58698;BME280;44475;53.206;-6.106;2023-08-31T00:30:45;100744.84;;;23.33;47.77
58698;BME280;44475;53.206;-6.106;2023-08-31T00:33:13;100740.13;;;23.45;47.91
58698;BME280;44475;53.206;-6.106;2023-08-31T00:35:39;100735.19;;;23.39;48.03
58698;BME280;44475;53.206;-6.106;2023-08-31T00:38:11;100737.69;;;23.52;47.70
58698;BME280;44475;53.206;-6.106;2023-08-31T00:40:42;100702.09;;;23.22;48.13
58698;BME280;44475;53.206;-6.106;2023-08-31T00:43:12;100700.97;;;23.35;47.86
58698;BME280;44475;53.206;-6.106;2023-08-31T00:45:39;100723.75;;;23.55;47.94
58698;BME280;44475;53.206;-6.106;2023-08-31T00:48:06;100725.16;;;23.59;47.59
58698;BME280;44475;53.206;-6.106;2023-08-31T00:50:33;100709.50;;;23.62;47.48
58698;BME280;44475;53.206;-6.106;2023-08-31T00:53:01;100705.56;;;23.34;48.01
58698;BME280;44475;53.206;-6.106;2023-08-31T00:55:27;100702.81;;;23.24;48.42
58698;BME280;44475;53.206;-6.106;2023-08-31T00:57:53;100699.97;;;23.46;48.02
58698;BME280;44475;53.206;-6.106;2023-08-31T01:00:23;100702.41;;;23.59;47.97
58698;BME280;44475;53.206;-6.106;2023-08-31T01:03:09;100714.81;;;23.53;47.76
58698;BME280;44475;53.206;-6.106;2023-08-31T01:05:52;100701.13;;;23.43;47.64
58698;BME280;44475;53.206;-6.106;2023-08-31T01:08:41;100703.84;;;23.43;47.97
58698;BME280;44475;53.206;-6.106;2023-08-31T01:14:22;100699.41;;;23.62;47.80
58698;BME280;44475;53.206;-6.106;2023-08-31T01:16:50;100705.44;;;23.46;47.70
58698;BME280;44475;53.206;-6.106;2023-08-31T01:22:03;100692.19;;;23.51;47.64
58698;BME280;44475;53.206;-6.106;2023-08-31T01:24:31;100694.78;;;23.43;47.95
58698;BME280;44475;53.206;-6.106;2023-08-31T01:26:57;100699.50;;;23.31;48.03
58698;BME280;44475;53.206;-6.106;2023-08-31T01:29:24;100693.19;;;23.50;47.84
58698;BME280;44475;53.206;-6.106;2023-08-31T01:31:51;100688.19;;;23.55;47.77
58698;BME280;44475;53.206;-6.106;2023-08-31T01:34:18;100688.00;;;23.47;47.88
58698;BME280;44475;53.206;-6.106;2023-08-31T01:36:48;100691.31;;;23.41;47.95
58698;BME280;44475;53.206;-6.106;2023-08-31T01:39:46;100688.47;;;23.52;47.89
58698;BME280;44475;53.206;-6.106;2023-08-31T01:42:16;100687.44;;;23.33;47.96
58698;BME280;44475;53.206;-6.106;2023-08-31T01:44:44;100695.63;;;23.23;48.43
58698;BME280;44475;53.206;-6.106;2023-08-31T01:47:11;100685.56;;;23.44;48.03
58698;BME280;44475;53.206;-6.106;2023-08-31T01:49:39;100685.13;;;23.38;48.10
58698;BME280;44475;53.206;-6.106;2023-08-31T01:52:06;100675.63;;;23.33;48.29
58698;BME280;44475;53.206;-6.106;2023-08-31T01:54:33;100674.91;;;23.41;47.84
58698;BME280;44475;53.206;-6.106;2023-08-31T01:57:00;100673.50;;;23.46;47.67
58698;BME280;44475;53.206;-6.106;2023-08-31T01:59:26;100675.06;;;23.49;47.59
58698;BME280;44475;53.206;-6.106;2023-08-31T02:01:53;100667.44;;;23.53;47.66
58698;BME280;44475;53.206;-6.106;2023-08-31T02:04:19;100658.97;;;23.36;48.05
58698;BME280;44475;53.206;-6.106;2023-08-31T02:06:45;100663.56;;;23.55;47.79
58698;BME280;44475;53.206;-6.106;2023-08-31T02:09:13;100658.38;;;23.62;47.73
58698;BME280;44475;53.206;-6.106;2023-08-31T02:11:40;100656.94;;;23.58;47.49
58698;BME280;44475;53.206;-6.106;2023-08-31T02:14:06;100655.50;;;23.54;47.64
58698;BME280;44475;53.206;-6.106;2023-08-31T02:16:34;100655.91;;;23.39;48.04
58698;BME280;44475;53.206;-6.106;2023-08-31T02:19:00;100651.78;;;23.55;47.63
58698;BME280;44475;53.206;-6.106;2023-08-31T02:21:26;100653.19;;;23.49;47.95
58698;BME280;44475;53.206;-6.106;2023-08-31T02:23:53;100643.13;;;23.49;47.82
58698;BME280;44475;53.206;-6.106;2023-08-31T02:26:20;100656.78;;;23.59;47.73
58698;BME280;44475;53.206;-6.106;2023-08-31T02:28:46;100650.91;;;23.44;48.02
58698;BME280;44475;53.206;-6.106;2023-08-31T02:31:14;100655.50;;;23.44;47.71
58698;BME280;44475;53.206;-6.106;2023-08-31T02:33:40;100643.56;;;23.55;47.57
58698;BME280;44475;53.206;-6.106;2023-08-31T02:36:07;100645.72;;;23.61;47.59
58698;BME280;44475;53.206;-6.106;2023-08-31T02:38:33;100640.84;;;23.55;47.63
58698;BME280;44475;53.206;-6.106;2023-08-31T02:40:59;100648.44;;;23.61;47.78
58698;BME280;44475;53.206;-6.106;2023-08-31T02:43:25;100642.97;;;23.51;47.67
58698;BME280;44475;53.206;-6.106;2023-08-31T02:46:02;100633.91;;;23.51;47.70
58698;BME280;44475;53.206;-6.106;2023-08-31T02:48:29;100636.78;;;23.49;47.71
58698;BME280;44475;53.206;-6.106;2023-08-31T02:50:57;100631.75;;;23.54;48.00
58698;BME280;44475;53.206;-6.106;2023-08-31T02:53:24;100628.88;;;23.56;47.80
58698;BME280;44475;53.206;-6.106;2023-08-31T02:55:50;100635.22;;;23.56;47.75
58698;BME280;44475;53.206;-6.106;2023-08-31T02:58:17;100624.56;;;23.43;47.97
58698;BME280;44475;53.206;-6.106;2023-08-31T03:00:43;100630.75;;;23.55;47.69
58698;BME280;44475;53.206;-6.106;2023-08-31T03:03:12;100631.31;;;23.59;47.79
58698;BME280;44475;53.206;-6.106;2023-08-31T03:05:38;100626.16;;;23.56;47.89
58698;BME280;44475;53.206;-6.106;2023-08-31T03:08:05;100616.38;;;23.53;47.88
58698;BME280;44475;53.206;-6.106;2023-08-31T03:10:31;100584.56;;;23.32;48.03
58698;BME280;44475;53.206;-6.106;2023-08-31T03:12:58;100610.63;;;23.46;47.94
58698;BME280;44475;53.206;-6.106;2023-08-31T03:15:24;100604.97;;;23.48;48.15
58698;BME280;44475;53.206;-6.106;2023-08-31T03:17:50;100586.41;;;23.52;47.84
58698;BME280;44475;53.206;-6.106;2023-08-31T03:20:16;100588.28;;;23.41;47.92
58698;BME280;44475;53.206;-6.106;2023-08-31T03:22:43;100571.03;;;23.51;47.78
58698;BME280;44475;53.206;-6.106;2023-08-31T03:25:09;100567.69;;;23.47;48.12
58698;BME280;44475;53.206;-6.106;2023-08-31T03:27:35;100562.41;;;23.45;48.23
58698;BME280;44475;53.206;-6.106;2023-08-31T03:30:02;100561.41;;;23.46;48.18
58698;BME280;44475;53.206;-6.106;2023-08-31T03:32:29;100571.47;;;23.56;47.96
58698;BME280;44475;53.206;-6.106;2023-08-31T03:34:55;100582.97;;;23.39;48.17
58698;BME280;44475;53.206;-6.106;2023-08-31T03:37:22;100579.81;;;23.54;47.80
58698;BME280;44475;53.206;-6.106;2023-08-31T03:39:49;100562.81;;;23.41;48.11
58698;BME280;44475;53.206;-6.106;2023-08-31T03:42:15;100564.41;;;23.43;48.22
58698;BME280;44475;53.206;-6.106;2023-08-31T03:44:42;100569.41;;;23.58;47.90
58698;BME280;44475;53.206;-6.106;2023-08-31T03:47:08;100568.56;;;23.47;48.26
58698;BME280;44475;53.206;-6.106;2023-08-31T03:49:35;100581.69;;;23.44;48.41
58698;BME280;44475;53.206;-6.106;2023-08-31T03:52:01;100582.41;;;23.46;48.32
58698;BME280;44475;53.206;-6.106;2023-08-31T03:54:27;100586.16;;;23.45;48.37
58698;BME280;44475;53.206;-6.106;2023-08-31T03:56:54;100580.66;;;23.55;48.14
58698;BME280;44475;53.206;-6.106;2023-08-31T03:59:20;100594.75;;;23.50;47.90
58698;BME280;44475;53.206;-6.106;2023-08-31T04:01:46;100597.22;;;23.43;48.15
58698;BME280;44475;53.206;-6.106;2023-08-31T04:04:13;100587.00;;;23.35;48.36
58698;BME280;44475;53.206;-6.106;2023-08-31T04:06:39;100578.22;;;23.62;47.69
58698;BME280;44475;53.206;-6.106;2023-08-31T04:09:06;100578.66;;;23.57;48.14
58698;BME280;44475;53.206;-6.106;2023-08-31T04:11:33;100574.03;;;23.37;48.49
58698;BME280;44475;53.206;-6.106;2023-08-31T04:14:00;100572.59;;;23.53;47.94
58698;BME280;44475;53.206;-6.106;2023-08-31T04:16:28;100568.28;;;23.51;48.24
58698;BME280;44475;53.206;-6.106;2023-08-31T04:18:55;100574.34;;;23.54;48.11
58698;BME280;44475;53.206;-6.106;2023-08-31T04:21:21;100563.28;;;23.66;47.95
58698;BME280;44475;53.206;-6.106;2023-08-31T04:23:47;100560.94;;;23.61;48.11
58698;BME280;44475;53.206;-6.106;2023-08-31T04:26:14;100574.03;;;23.57;47.78
58698;BME280;44475;53.206;-6.106;2023-08-31T04:28:41;100567.16;;;23.63;47.87
58698;BME280;44475;53.206;-6.106;2023-08-31T04:31:08;100579.66;;;23.56;48.02
58698;BME280;44475;53.206;-6.106;2023-08-31T04:33:36;100583.97;;;23.58;48.16
58698;BME280;44475;53.206;-6.106;2023-08-31T04:36:02;100577.81;;;23.46;47.98
58698;BME280;44475;53.206;-6.106;2023-08-31T04:38:31;100563.25;;;23.56;48.00
58698;BME280;44475;53.206;-6.106;2023-08-31T04:41:01;100570.59;;;23.55;48.05
58698;BME280;44475;53.206;-6.106;2023-08-31T04:43:28;100565.41;;;23.42;48.37
58698;BME280;44475;53.206;-6.106;2023-08-31T04:45:54;100573.47;;;23.44;48.37
58698;BME280;44475;53.206;-6.106;2023-08-31T04:48:21;100564.25;;;23.55;47.90
58698;BME280;44475;53.206;-6.106;2023-08-31T04:50:48;100563.56;;;23.63;47.89
58698;BME280;44475;53.206;-6.106;2023-08-31T04:53:14;100566.69;;;23.48;48.44
58698;BME280;44475;53.206;-6.106;2023-08-31T04:55:40;100563.56;;;23.63;48.03
58698;BME280;44475;53.206;-6.106;2023-08-31T04:58:06;100571.59;;;23.54;48.25
58698;BME280;44475;53.206;-6.106;2023-08-31T05:00:33;100578.06;;;23.53;48.44
58698;BME280;44475;53.206;-6.106;2023-08-31T05:02:59;100574.47;;;23.53;48.23
58698;BME280;44475;53.206;-6.106;2023-08-31T05:05:25;100565.81;;;23.57;48.14
58698;BME280;44475;53.206;-6.106;2023-08-31T05:07:51;100558.34;;;23.49;48.35
58698;BME280;44475;53.206;-6.106;2023-08-31T05:10:18;100561.66;;;23.53;48.10
58698;BME280;44475;53.206;-6.106;2023-08-31T05:12:44;100574.59;;;23.61;47.99
58698;BME280;44475;53.206;-6.106;2023-08-31T05:15:10;100564.81;;;23.58;48.12
58698;BME280;44475;53.206;-6.106;2023-08-31T05:17:36;100562.41;;;23.65;47.76
58698;BME280;44475;53.206;-6.106;2023-08-31T05:20:03;100554.06;;;23.57;48.07
58698;BME280;44475;53.206;-6.106;2023-08-31T05:22:30;100552.31;;;23.56;48.19
58698;BME280;44475;53.206;-6.106;2023-08-31T05:24:56;100556.22;;;23.43;48.19
58698;BME280;44475;53.206;-6.106;2023-08-31T05:27:23;100545.13;;;23.45;48.05
58698;BME280;44475;53.206;-6.106;2023-08-31T05:29:49;100564.28;;;23.45;48.44
58698;BME280;44475;53.206;-6.106;2023-08-31T05:32:15;100564.53;;;23.62;47.97
58698;BME280;44475;53.206;-6.106;2023-08-31T05:34:41;100556.94;;;23.65;48.07
58698;BME280;44475;53.206;-6.106;2023-08-31T05:37:08;100545.28;;;23.63;47.92
58698;BME280;44475;53.206;-6.106;2023-08-31T05:39:34;100535.47;;;23.51;48.33
58698;BME280;44475;53.206;-6.106;2023-08-31T05:42:00;100536.06;;;23.44;48.49
58698;BME280;44475;53.206;-6.106;2023-08-31T05:44:27;100546.69;;;23.57;48.10
58698;BME280;44475;53.206;-6.106;2023-08-31T05:46:53;100555.34;;;23.53;48.50
58698;BME280;44475;53.206;-6.106;2023-08-31T05:49:19;100559.50;;;23.37;48.51
58698;BME280;44475;53.206;-6.106;2023-08-31T05:51:46;100562.97;;;23.39;48.72
58698;BME280;44475;53.206;-6.106;2023-08-31T05:54:12;100558.94;;;23.53;48.34
58698;BME280;44475;53.206;-6.106;2023-08-31T05:56:39;100547.00;;;23.54;48.15
58698;BME280;44475;53.206;-6.106;2023-08-31T05:59:09;100558.50;;;23.48;48.53
58698;BME280;44475;53.206;-6.106;2023-08-31T06:01:36;100545.66;;;23.58;48.39
58698;BME280;44475;53.206;-6.106;2023-08-31T06:04:02;100545.66;;;23.58;48.25
58698;BME280;44475;53.206;-6.106;2023-08-31T06:06:29;100549.00;;;23.52;48.57
58698;BME280;44475;53.206;-6.106;2023-08-31T06:08:55;100550.75;;;23.63;48.41
58698;BME280;44475;53.206;-6.106;2023-08-31T06:11:22;100551.00;;;23.60;48.19
58698;BME280;44475;53.206;-6.106;2023-08-31T06:13:49;100551.00;;;23.60;48.16
58698;BME280;44475;53.206;-6.106;2023-08-31T06:16:15;100563.25;;;23.56;48.38
58698;BME280;44475;53.206;-6.106;2023-08-31T06:18:41;100552.47;;;23.64;48.03
58698;BME280;44475;53.206;-6.106;2023-08-31T06:21:07;100550.75;;;23.63;48.36
58698;BME280;44475;53.206;-6.106;2023-08-31T06:23:33;100557.94;;;23.54;48.21
58698;BME280;44475;53.206;-6.106;2023-08-31T06:26:00;100552.75;;;23.51;48.64
58698;BME280;44475;53.206;-6.106;2023-08-31T06:28:26;100550.75;;;23.63;48.02
58698;BME280;44475;53.206;-6.106;2023-08-31T06:30:52;100549.75;;;23.64;48.04
58698;BME280;44475;53.206;-6.106;2023-08-31T06:33:19;100547.25;;;23.61;48.20
58698;BME280;44475;53.206;-6.106;2023-08-31T06:35:46;100550.13;;;23.59;48.16
58698;BME280;44475;53.206;-6.106;2023-08-31T06:38:14;100549.47;;;23.67;48.04
58698;BME280;44475;53.206;-6.106;2023-08-31T06:40:42;100548.25;;;23.60;48.10
58698;BME280;44475;53.206;-6.106;2023-08-31T06:43:09;100548.25;;;23.60;48.17
58698;BME280;44475;53.206;-6.106;2023-08-31T06:45:36;100553.03;;;23.48;48.60
58698;BME280;44475;53.206;-6.106;2023-08-31T06:48:02;100545.25;;;23.53;48.38
58698;BME280;44475;53.206;-6.106;2023-08-31T06:50:30;100550.16;;;23.49;48.54
58698;BME280;44475;53.206;-6.106;2023-08-31T06:52:56;100556.19;;;23.53;48.38
58698;BME280;44475;53.206;-6.106;2023-08-31T06:55:22;100543.41;;;23.64;48.22
58698;BME280;44475;53.206;-6.106;2023-08-31T06:57:49;100547.88;;;23.65;48.09
58698;BME280;44475;53.206;-6.106;2023-08-31T07:00:16;100548.75;;;23.65;48.01
58698;BME280;44475;53.206;-6.106;2023-08-31T07:02:42;100549.75;;;23.64;48.09
58698;BME280;44475;53.206;-6.106;2023-08-31T07:05:10;100552.19;;;23.67;48.21
58698;BME280;44475;53.206;-6.106;2023-08-31T07:07:37;100540.06;;;23.70;48.24
58698;BME280;44475;53.206;-6.106;2023-08-31T07:10:03;100528.13;;;23.61;48.42
58698;BME280;44475;53.206;-6.106;2023-08-31T07:12:31;100527.41;;;23.59;48.21
58698;BME280;44475;53.206;-6.106;2023-08-31T07:14:58;100532.00;;;23.58;48.55
58698;BME280;44475;53.206;-6.106;2023-08-31T07:17:24;100532.31;;;23.45;48.67
58698;BME280;44475;53.206;-6.106;2023-08-31T07:19:50;100522.38;;;23.54;48.65
58698;BME280;44475;53.206;-6.106;2023-08-31T07:22:16;100511.16;;;23.47;48.99
58698;BME280;44475;53.206;-6.106;2023-08-31T07:24:43;100503.81;;;23.28;49.23
58698;BME280;44475;53.206;-6.106;2023-08-31T07:27:09;100503.09;;;23.56;48.94
58698;BME280;44475;53.206;-6.106;2023-08-31T07:29:35;100503.25;;;23.54;48.77
58698;BME280;44475;53.206;-6.106;2023-08-31T07:32:01;100505.50;;;23.59;48.41
58698;BME280;44475;53.206;-6.106;2023-08-31T07:34:29;100503.66;;;23.49;48.82
58698;BME280;44475;53.206;-6.106;2023-08-31T07:36:58;100513.56;;;23.61;48.92
58698;BME280;44475;53.206;-6.106;2023-08-31T07:39:25;100517.19;;;23.51;49.19
58698;BME280;44475;53.206;-6.106;2023-08-31T07:41:52;100509.28;;;23.38;49.46
58698;BME280;44475;53.206;-6.106;2023-08-31T07:44:20;100518.81;;;23.34;49.44
58698;BME280;44475;53.206;-6.106;2023-08-31T07:46:46;100533.47;;;23.53;48.82
58698;BME280;44475;53.206;-6.106;2023-08-31T07:49:12;100534.34;;;22.93;50.60
58698;BME280;44475;53.206;-6.106;2023-08-31T07:51:38;100533.63;;;23.21;50.31
58698;BME280;44475;53.206;-6.106;2023-08-31T07:54:05;100525.41;;;23.11;50.45
58698;BME280;44475;53.206;-6.106;2023-08-31T07:56:31;100528.06;;;22.71;51.44
58698;BME280;44475;53.206;-6.106;2023-08-31T07:58:57;100526.50;;;22.78;51.70
58698;BME280;44475;53.206;-6.106;2023-08-31T08:01:24;100537.41;;;22.68;51.88
58698;BME280;44475;53.206;-6.106;2023-08-31T08:03:50;100535.75;;;22.87;51.70
58698;BME280;44475;53.206;-6.106;2023-08-31T08:06:17;100537.88;;;22.84;51.80
58698;BME280;44475;53.206;-6.106;2023-08-31T08:08:43;100539.41;;;22.66;52.10
58698;BME280;44475;53.206;-6.106;2023-08-31T08:11:09;100539.69;;;22.73;52.25
58698;BME280;44475;53.206;-6.106;2023-08-31T08:13:35;100541.88;;;22.79;52.33
58698;BME280;44475;53.206;-6.106;2023-08-31T08:16:02;100545.50;;;22.80;52.11
58698;BME280;44475;53.206;-6.106;2023-08-31T08:18:29;100549.28;;;23.09;51.57
58698;BME280;44475;53.206;-6.106;2023-08-31T08:20:55;100560.00;;;22.80;52.17
58698;BME280;44475;53.206;-6.106;2023-08-31T08:23:22;100554.00;;;22.87;51.74
58698;BME280;44475;53.206;-6.106;2023-08-31T08:25:49;100554.16;;;23.05;51.62
58698;BME280;44475;53.206;-6.106;2023-08-31T08:28:15;100565.25;;;22.94;51.77
58698;BME280;44475;53.206;-6.106;2023-08-31T08:30:41;100558.91;;;22.93;52.14
58698;BME280;44475;53.206;-6.106;2023-08-31T08:33:09;100555.88;;;22.86;52.20
58698;BME280;44475;53.206;-6.106;2023-08-31T08:35:36;100555.00;;;22.86;52.12
58698;BME280;44475;53.206;-6.106;2023-08-31T08:38:03;100557.72;;;22.86;52.08
58698;BME280;44475;53.206;-6.106;2023-08-31T08:40:31;100559.56;;;22.75;52.56
58698;BME280;44475;53.206;-6.106;2023-08-31T08:43:00;100560.59;;;22.84;52.22
58698;BME280;44475;53.206;-6.106;2023-08-31T08:45:36;100554.72;;;22.89;52.19
58698;BME280;44475;53.206;-6.106;2023-08-31T08:48:05;100553.53;;;22.82;52.23
58698;BME280;44475;53.206;-6.106;2023-08-31T08:50:34;100552.72;;;22.91;51.96
58698;BME280;44475;53.206;-6.106;2023-08-31T08:53:02;100551.72;;;22.92;52.07
58698;BME280;44475;53.206;-6.106;2023-08-31T08:55:29;100548.41;;;22.88;52.06
58698;BME280;44475;53.206;-6.106;2023-08-31T08:57:57;100553.28;;;22.85;52.21
58698;BME280;44475;53.206;-6.106;2023-08-31T09:00:23;100542.75;;;22.80;52.37
58698;BME280;44475;53.206;-6.106;2023-08-31T09:02:50;100543.97;;;23.17;51.74
58698;BME280;44475;53.206;-6.106;2023-08-31T09:05:16;100548.00;;;23.13;51.67
58698;BME280;44475;53.206;-6.106;2023-08-31T09:10:41;100555.00;;;22.86;52.17
58698;BME280;44475;53.206;-6.106;2023-08-31T09:13:13;100547.53;;;22.88;52.11
58698;BME280;44475;53.206;-6.106;2023-08-31T09:15:45;100553.59;;;22.92;51.84
58698;BME280;44475;53.206;-6.106;2023-08-31T09:20:48;100566.28;;;23.43;50.64
58698;BME280;44475;53.206;-6.106;2023-08-31T09:23:15;100564.69;;;23.50;50.68
58698;BME280;44475;53.206;-6.106;2023-08-31T09:25:46;100553.34;;;23.45;50.47
58698;BME280;44475;53.206;-6.106;2023-08-31T09:28:18;100550.13;;;23.59;50.20
58698;BME280;44475;53.206;-6.106;2023-08-31T09:30:47;100541.69;;;23.63;50.00
58698;BME280;44475;53.206;-6.106;2023-08-31T09:33:18;100556.94;;;23.65;50.05
58698;BME280;44475;53.206;-6.106;2023-08-31T09:35:56;100541.81;;;23.71;49.94
58698;BME280;44475;53.206;-6.106;2023-08-31T09:38:22;100535.47;;;23.61;50.24
58698;BME280;44475;53.206;-6.106;2023-08-31T09:40:49;100538.66;;;23.66;49.88
58698;BME280;44475;53.206;-6.106;2023-08-31T09:43:23;100534.22;;;23.25;50.86
58698;BME280;44475;53.206;-6.106;2023-08-31T09:45:50;100528.44;;;23.28;51.16
58698;BME280;44475;53.206;-6.106;2023-08-31T09:48:17;100525.28;;;23.23;51.58
58698;BME280;44475;53.206;-6.106;2023-08-31T09:50:44;100525.69;;;23.18;51.64
58698;BME280;44475;53.206;-6.106;2023-08-31T09:53:16;100525.41;;;23.21;51.22
58698;BME280;44475;53.206;-6.106;2023-08-31T09:55:43;100529.88;;;22.92;52.23
58698;BME280;44475;53.206;-6.106;2023-08-31T09:58:10;100521.09;;;22.88;52.54
58698;BME280;44475;53.206;-6.106;2023-08-31T10:00:37;100524.50;;;22.80;53.05
58698;BME280;44475;53.206;-6.106;2023-08-31T10:03:05;100525.63;;;22.78;52.95
58698;BME280;44475;53.206;-6.106;2023-08-31T10:05:31;100524.09;;;22.95;52.78
58698;BME280;44475;53.206;-6.106;2023-08-31T10:07:59;100521.50;;;22.84;53.50
58698;BME280;44475;53.206;-6.106;2023-08-31T10:10:26;100523.38;;;22.83;53.11
58698;BME280;44475;53.206;-6.106;2023-08-31T10:12:53;100513.34;;;23.24;52.79
58698;BME280;44475;53.206;-6.106;2023-08-31T10:15:20;100509.09;;;23.79;50.77
58698;BME280;44475;53.206;-6.106;2023-08-31T10:17:47;100509.75;;;23.13;51.93
58698;BME280;44475;53.206;-6.106;2023-08-31T10:20:16;100510.22;;;22.57;53.88
58698;BME280;44475;53.206;-6.106;2023-08-31T10:22:44;100507.16;;;22.40;54.94
58698;BME280;44475;53.206;-6.106;2023-08-31T10:25:10;100502.41;;;22.42;54.81
58698;BME280;44475;53.206;-6.106;2023-08-31T10:27:41;100505.69;;;22.36;55.40
58698;BME280;44475;53.206;-6.106;2023-08-31T10:30:34;100503.41;;;22.41;54.98
58698;BME280;44475;53.206;-6.106;2023-08-31T10:33:20;100502.09;;;22.35;55.31
58698;BME280;44475;53.206;-6.106;2023-08-31T10:38:25;100507.75;;;22.54;55.25
58698;BME280;44475;53.206;-6.106;2023-08-31T10:43:56;100506.47;;;22.48;54.78
58698;BME280;44475;53.206;-6.106;2023-08-31T10:46:31;100508.06;;;22.60;54.95
58698;BME280;44475;53.206;-6.106;2023-08-31T10:51:39;100506.50;;;22.68;54.63
58698;BME280;44475;53.206;-6.106;2023-08-31T10:59:41;100512.69;;;22.70;54.60
58698;BME280;44475;53.206;-6.106;2023-08-31T11:02:07;100504.63;;;22.68;54.49
58698;BME280;44475;53.206;-6.106;2023-08-31T11:04:53;100507.38;;;22.68;54.86
58698;BME280;44475;53.206;-6.106;2023-08-31T11:07:24;100507.22;;;22.60;54.98
58698;BME280;44475;53.206;-6.106;2023-08-31T11:09:51;100501.63;;;22.62;54.68
58698;BME280;44475;53.206;-6.106;2023-08-31T11:12:22;100503.31;;;22.63;55.09
58698;BME280;44475;53.206;-6.106;2023-08-31T11:14:49;100508.06;;;22.60;54.95
58698;BME280;44475;53.206;-6.106;2023-08-31T11:17:17;100502.50;;;22.72;54.63
58698;BME280;44475;53.206;-6.106;2023-08-31T11:19:43;100504.34;;;22.62;54.60
58698;BME280;44475;53.206;-6.106;2023-08-31T11:22:10;100502.59;;;22.50;55.33
58698;BME280;44475;53.206;-6.106;2023-08-31T11:24:37;100504.03;;;22.55;55.21
58698;BME280;44475;53.206;-6.106;2023-08-31T11:27:08;100512.09;;;22.66;54.78
58698;BME280;44475;53.206;-6.106;2023-08-31T11:29:43;100505.03;;;22.54;54.92
58698;BME280;44475;53.206;-6.106;2023-08-31T11:32:10;100502.59;;;22.50;55.32
58698;BME280;44475;53.206;-6.106;2023-08-31T11:34:41;100504.63;;;22.68;54.67
58698;BME280;44475;53.206;-6.106;2023-08-31T11:37:09;100501.91;;;22.68;54.40
58698;BME280;44475;53.206;-6.106;2023-08-31T11:39:37;100512.97;;;22.77;54.51
58698;BME280;44475;53.206;-6.106;2023-08-31T11:42:05;100505.19;;;22.62;54.64
58698;BME280;44475;53.206;-6.106;2023-08-31T11:44:32;100516.38;;;22.49;55.12
58698;BME280;44475;53.206;-6.106;2023-08-31T11:46:59;100516.06;;;22.42;55.30
58698;BME280;44475;53.206;-6.106;2023-08-31T11:49:27;100517.44;;;22.68;54.87
58698;BME280;44475;53.206;-6.106;2023-08-31T11:51:53;100522.88;;;22.58;55.00
58698;BME280;44475;53.206;-6.106;2023-08-31T11:54:20;100518.13;;;22.60;55.12
58698;BME280;44475;53.206;-6.106;2023-08-31T11:56:47;100518.00;;;22.62;54.45
58698;BME280;44475;53.206;-6.106;2023-08-31T11:59:18;100512.38;;;22.73;54.44
58698;BME280;44475;53.206;-6.106;2023-08-31T12:01:47;100508.38;;;22.77;54.00
58698;BME280;44475;53.206;-6.106;2023-08-31T12:04:23;100508.38;;;22.67;54.78
58698;BME280;44475;53.206;-6.106;2023-08-31T12:06:58;100509.53;;;22.75;54.44
58698;BME280;44475;53.206;-6.106;2023-08-31T12:09:28;100512.03;;;22.88;54.23
58698;BME280;44475;53.206;-6.106;2023-08-31T12:11:54;100518.72;;;22.74;54.48
58698;BME280;44475;53.206;-6.106;2023-08-31T12:14:27;100510.47;;;22.54;55.11
58698;BME280;44475;53.206;-6.106;2023-08-31T12:17:01;100514.97;;;22.65;54.90
58698;BME280;44475;53.206;-6.106;2023-08-31T12:19:29;100521.69;;;22.92;54.13
58698;BME280;44475;53.206;-6.106;2023-08-31T12:21:57;100513.75;;;22.99;54.23
58698;BME280;44475;53.206;-6.106;2023-08-31T12:24:23;100512.88;;;22.88;54.31
58698;BME280;44475;53.206;-6.106;2023-08-31T12:26:50;100513.25;;;22.74;54.64
58698;BME280;44475;53.206;-6.106;2023-08-31T12:29:17;100511.53;;;22.73;54.80
58698;BME280;44475;53.206;-6.106;2023-08-31T12:31:43;100509.56;;;22.95;54.24
58698;BME280;44475;53.206;-6.106;2023-08-31T12:34:10;100512.03;;;23.18;53.71
58698;BME280;44475;53.206;-6.106;2023-08-31T12:36:37;100505.84;;;23.06;53.78
58698;BME280;44475;53.206;-6.106;2023-08-31T12:39:05;100510.28;;;22.87;54.45
58698;BME280;44475;53.206;-6.106;2023-08-31T12:41:33;100509.44;;;23.06;54.21
58698;BME280;44475;53.206;-6.106;2023-08-31T12:43:59;100509.31;;;23.08;53.80
58698;BME280;44475;53.206;-6.106;2023-08-31T12:46:26;100504.41;;;23.02;54.06
58698;BME280;44475;53.206;-6.106;2023-08-31T12:48:52;100504.25;;;22.83;54.68
58698;BME280;44475;53.206;-6.106;2023-08-31T12:51:18;100505.41;;;22.91;54.60
58698;BME280;44475;53.206;-6.106;2023-08-31T12:53:45;100506.13;;;22.83;54.66
58698;BME280;44475;53.206;-6.106;2023-08-31T12:56:12;100505.16;;;23.14;53.72
58698;BME280;44475;53.206;-6.106;2023-08-31T12:58:39;100500.81;;;23.01;54.33
58698;BME280;44475;53.206;-6.106;2023-08-31T13:01:06;100493.91;;;23.07;53.84
58698;BME280;44475;53.206;-6.106;2023-08-31T13:03:32;100482.41;;;23.13;53.94
58698;BME280;44475;53.206;-6.106;2023-08-31T13:05:58;100494.22;;;23.24;53.57
58698;BME280;44475;53.206;-6.106;2023-08-31T13:08:24;100491.31;;;23.35;53.28